createdAt,value
2023-01-10T00:04:18.650Z,68.30
2023-01-10T00:09:27.536Z,61.50
2023-01-10T00:14:35.769Z,66.80
2023-01-10T00:19:44.550Z,64.90
2023-01-10T00:24:52.697Z,77.50
2023-01-10T00:30:05.554Z,69.00
2023-01-10T00:35:14.697Z,76.20
2023-01-10T00:40:23.252Z,70.50
2023-01-10T00:45:31.415Z,72.50
2023-01-10T00:50:39.886Z,77.90
2023-01-10T00:55:48.281Z,74.00
2023-01-10T01:00:57.476Z,78.20
2023-01-10T01:06:08.499Z,74.40
2023-01-10T01:11:16.929Z,76.50
2023-01-10T01:16:25.562Z,83.90
2023-01-10T01:21:34.516Z,84.00
2023-01-10T01:26:43.198Z,84.50
2023-01-10T01:31:52.056Z,72.10
2023-01-10T01:37:00.750Z,72.50
2023-01-10T01:42:22.914Z,68.50
2023-01-10T01:47:31.602Z,72.00
2023-01-10T01:52:39.869Z,70.60
2023-01-10T01:57:49.818Z,78.50
2023-01-10T02:03:03.325Z,74.00
2023-01-10T02:08:12.624Z,78.00
2023-01-10T02:13:24.085Z,76.60
2023-01-10T02:18:32.323Z,74.40
2023-01-10T02:24:14.742Z,85.60
2023-01-10T02:29:45.695Z,84.70
2023-01-10T02:35:11.029Z,80.60
2023-01-10T02:40:32.854Z,73.30
2023-01-10T02:45:47.745Z,76.00
2023-01-10T02:51:02.204Z,76.50
2023-01-10T02:56:40.994Z,77.50
2023-01-10T03:01:57.104Z,77.10
2023-01-10T03:07:15.646Z,73.30
2023-01-10T03:12:30.034Z,71.60
2023-01-10T03:17:41.122Z,70.10
2023-01-10T03:22:53.654Z,68.10
2023-01-10T03:28:06.425Z,77.60
2023-01-10T03:33:17.805Z,71.30
2023-01-10T03:38:33.088Z,82.30
2023-01-10T03:44:05.346Z,71.20
2023-01-10T03:49:16.062Z,68.00
2023-01-10T03:54:24.405Z,65.20
2023-01-10T03:59:32.966Z,66.20
2023-01-10T04:04:41.684Z,66.30
2023-01-10T04:09:49.852Z,70.60
2023-01-10T04:14:58.192Z,69.30
2023-01-10T04:20:07.094Z,71.80
2023-01-10T04:25:15.925Z,70.80
2023-01-10T04:30:24.739Z,72.50
2023-01-10T04:35:33.013Z,75.70
2023-01-10T04:40:41.295Z,70.60
2023-01-10T04:45:49.932Z,71.10
2023-01-10T04:50:58.408Z,68.90
2023-01-10T04:56:18.625Z,80.10
2023-01-10T05:01:27.857Z,71.70
2023-01-10T05:06:37.493Z,74.70
2023-01-10T05:11:45.875Z,69.90
2023-01-10T05:16:54.475Z,74.70
2023-01-10T05:22:02.725Z,83.20
2023-01-10T05:27:10.651Z,73.90
2023-01-10T05:32:19.060Z,75.70
2023-01-10T05:37:27.539Z,71.50
2023-01-10T05:42:36.215Z,72.20
2023-01-10T05:47:45.535Z,72.20
2023-01-10T05:52:53.988Z,65.80
2023-01-10T05:58:03.057Z,63.30
2023-01-10T06:03:11.335Z,63.90
2023-01-10T06:08:19.766Z,64.50
2023-01-10T06:13:29.534Z,62.90
2023-01-10T06:18:37.789Z,59.20
2023-01-10T06:23:45.963Z,61.60
2023-01-10T06:28:54.550Z,53.20
2023-01-10T06:34:03.932Z,52.50
2023-01-10T06:39:12.667Z,53.60
2023-01-10T06:44:21.228Z,55.70
2023-01-10T06:49:30.314Z,58.90
2023-01-10T06:54:38.464Z,50.20
2023-01-10T06:59:46.660Z,52.90
2023-01-10T07:04:54.831Z,48.70
2023-01-10T07:10:04.013Z,53.40
2023-01-10T07:15:13.782Z,49.00
2023-01-10T07:20:22.256Z,45.70
2023-01-10T07:25:31.767Z,48.90
2023-01-10T07:30:40.133Z,43.20
2023-01-10T07:35:48.774Z,40.30
2023-01-10T07:40:57.182Z,43.60
2023-01-10T07:46:09.821Z,43.30
2023-01-10T07:51:18.365Z,42.90
2023-01-10T07:56:26.888Z,43.30
2023-01-10T08:01:35.532Z,41.10
2023-01-10T08:06:43.680Z,40.80
2023-01-10T08:11:52.095Z,43.60
2023-01-10T08:17:00.600Z,40.90
2023-01-10T08:22:09.332Z,48.90
2023-01-10T08:27:17.612Z,57.40
2023-01-10T08:32:25.864Z,91.80
2023-01-10T08:37:35.677Z,69.50
2023-01-10T08:42:43.952Z,57.60
2023-01-10T08:47:52.232Z,49.00
2023-01-10T08:53:01.473Z,55.00
2023-01-10T08:58:09.768Z,50.00
2023-01-10T09:03:18.422Z,54.50
2023-01-10T09:08:27.152Z,58.40
2023-01-10T09:13:36.234Z,50.70
2023-01-10T09:18:44.625Z,51.70
2023-01-10T09:23:52.839Z,53.20
2023-01-10T09:29:01.486Z,51.10
2023-01-10T09:34:09.997Z,53.20
2023-01-10T09:39:18.634Z,53.20
2023-01-10T09:44:43.910Z,56.70
2023-01-10T09:50:02.911Z,58.90
2023-01-10T09:55:25.582Z,51.80
2023-01-10T10:00:41.676Z,53.30
2023-01-10T10:05:51.509Z,55.70
2023-01-10T10:11:21.248Z,51.60
2023-01-10T10:16:39.943Z,50.00
2023-01-10T10:21:57.856Z,47.30
2023-01-10T10:27:16.475Z,51.80
2023-01-10T10:32:42.309Z,46.20
2023-01-10T10:37:52.667Z,44.20
2023-01-10T10:43:13.450Z,38.00
2023-01-10T10:48:29.117Z,38.00
2023-01-10T10:53:38.606Z,43.80
2023-01-10T10:58:50.556Z,41.40
2023-01-10T11:04:02.971Z,44.20
2023-01-10T11:09:13.302Z,58.50
2023-01-10T11:14:46.414Z,57.00
2023-01-10T11:20:03.400Z,62.80
2023-01-10T11:25:20.464Z,63.40
2023-01-10T11:30:32.202Z,55.10
2023-01-10T11:35:42.324Z,55.10
2023-01-10T11:40:59.351Z,64.10
2023-01-10T11:46:16.308Z,53.00
2023-01-10T11:51:29.128Z,50.80
2023-01-10T11:56:40.279Z,43.80
2023-01-10T12:01:56.328Z,38.10
2023-01-10T12:07:10.161Z,36.30
2023-01-10T12:12:25.916Z,38.60
2023-01-10T12:17:36.968Z,41.70
2023-01-10T12:22:47.541Z,37.60
2023-01-10T12:27:58.291Z,42.50
2023-01-10T12:33:09.399Z,50.40
2023-01-10T12:38:47.839Z,47.70
2023-01-10T12:44:16.833Z,37.00
2023-01-10T12:49:31.730Z,40.40
2023-01-10T12:54:40.357Z,40.30
2023-01-10T12:59:48.796Z,37.80
2023-01-10T13:05:02.968Z,34.30
2023-01-10T13:10:16.983Z,41.80
2023-01-10T13:15:31.870Z,40.50
2023-01-10T13:20:48.058Z,39.70
2023-01-10T13:26:09.454Z,37.10
2023-01-10T13:31:31.663Z,41.40
2023-01-10T13:36:44.586Z,37.80
2023-01-10T13:42:44.594Z,43.40
2023-01-10T13:48:13.356Z,170.50
2023-01-10T13:53:52.934Z,163.70
2023-01-10T13:59:20.133Z,94.40
2023-01-10T14:04:30.603Z,62.90
2023-01-10T14:09:45.322Z,50.50
2023-01-10T14:15:00.859Z,49.60
2023-01-10T14:20:19.719Z,74.20
2023-01-10T14:25:30.515Z,115.60
2023-01-10T14:30:41.657Z,118.50
2023-01-10T14:35:56.610Z,116.90
2023-01-10T14:41:08.695Z,123.40
2023-01-10T14:46:22.736Z,158.90
2023-01-10T14:51:32.527Z,138.00
2023-01-10T14:56:49.958Z,136.60
2023-01-10T15:07:17.729Z,76.20
2023-01-10T15:12:29.340Z,80.70
2023-01-10T15:17:38.916Z,90.80
2023-01-10T15:22:50.260Z,81.00
2023-01-10T15:27:59.898Z,49.50
2023-01-10T15:33:13.761Z,41.50
2023-01-10T15:38:30.854Z,44.50
2023-01-10T15:43:40.706Z,43.80
2023-01-10T15:49:00.972Z,35.70
2023-01-10T15:54:30.333Z,35.60
2023-01-10T15:59:41.926Z,38.00
2023-01-10T16:04:53.645Z,35.80
2023-01-10T16:10:06.450Z,37.80
2023-01-10T16:15:22.329Z,34.60
2023-01-10T16:20:34.724Z,40.00
2023-01-10T16:30:53.198Z,38.20
2023-01-10T16:36:02.857Z,37.30
2023-01-10T16:41:33.587Z,35.00
2023-01-10T16:46:42.060Z,37.60
2023-01-10T16:51:50.421Z,30.70
2023-01-10T16:56:58.849Z,31.80
2023-01-10T17:02:19.573Z,35.10
2023-01-10T17:07:27.961Z,38.00
2023-01-10T17:12:39.412Z,36.60
2023-01-10T17:17:47.713Z,35.20
2023-01-10T17:22:56.007Z,38.20
2023-01-10T17:28:05.460Z,38.10
2023-01-10T17:33:14.025Z,31.10
2023-01-10T17:38:23.569Z,37.20
2023-01-10T17:43:33.345Z,31.60
2023-01-10T17:48:42.125Z,31.60
2023-01-10T17:53:50.889Z,34.20
2023-01-10T17:58:59.142Z,33.90
2023-01-10T18:04:08.626Z,35.00
2023-01-10T18:09:17.185Z,34.70
2023-01-10T18:14:39.019Z,39.60
2023-01-10T18:19:48.166Z,81.20
2023-01-10T18:24:57.761Z,73.80
2023-01-10T18:30:06.615Z,64.40
2023-01-10T18:35:15.298Z,55.80
2023-01-10T18:40:23.991Z,82.80
2023-01-10T18:45:32.625Z,83.70
2023-01-10T18:50:41.411Z,106.90
2023-01-10T18:55:59.035Z,81.60
2023-01-10T19:01:14.545Z,69.60
2023-01-10T19:06:25.943Z,58.50
2023-01-10T19:11:34.509Z,43.60
2023-01-10T19:16:42.932Z,37.10
2023-01-10T19:21:51.445Z,34.40
2023-01-10T19:27:00.406Z,32.60
2023-01-10T19:32:09.096Z,31.10
2023-01-10T19:37:17.417Z,36.60
2023-01-10T19:42:26.259Z,35.30
2023-01-10T19:47:34.757Z,42.10
2023-01-10T19:52:44.032Z,37.70
2023-01-10T19:57:52.647Z,44.80
2023-01-10T20:03:01.141Z,55.10
2023-01-10T20:08:09.925Z,54.90
2023-01-10T20:13:18.241Z,53.00
2023-01-10T20:18:26.689Z,44.10
2023-01-10T20:23:36.622Z,41.00
2023-01-10T20:28:46.105Z,44.70
2023-01-10T20:33:54.563Z,40.00
2023-01-10T20:39:03.223Z,44.40
2023-01-10T20:44:11.405Z,35.50
2023-01-10T20:49:19.700Z,35.70
2023-01-10T20:54:28.456Z,35.30
2023-01-10T20:59:37.197Z,41.40
2023-01-10T21:04:45.518Z,48.80
2023-01-10T21:09:54.496Z,49.70
2023-01-10T21:15:03.256Z,53.30
2023-01-10T21:20:14.259Z,54.10
2023-01-10T21:25:22.693Z,52.80
2023-01-10T21:30:31.371Z,66.10
2023-01-10T21:35:40.689Z,68.90
2023-01-10T21:40:48.863Z,75.70
2023-01-10T21:46:01.952Z,79.80
2023-01-10T21:51:10.491Z,164.10
2023-01-10T21:56:18.824Z,156.00
2023-01-10T22:01:27.039Z,114.10
2023-01-10T22:06:35.558Z,87.00
2023-01-10T22:11:44.155Z,68.30
2023-01-10T22:16:52.543Z,66.40
2023-01-10T22:22:01.582Z,55.50
2023-01-10T22:27:10.230Z,62.90
2023-01-10T22:32:18.981Z,46.50
2023-01-10T22:37:27.207Z,48.80
2023-01-10T22:42:35.806Z,47.60
2023-01-10T22:47:44.573Z,51.00
2023-01-10T22:52:53.488Z,45.90
2023-01-10T22:58:02.251Z,52.80
2023-01-10T23:03:10.795Z,45.10
2023-01-10T23:08:19.047Z,39.10
2023-01-10T23:13:28.462Z,33.90
2023-01-10T23:18:37.615Z,32.50
2023-01-10T23:23:47.120Z,29.70
2023-01-10T23:28:55.582Z,28.40
2023-01-10T23:34:03.905Z,30.70
2023-01-10T23:39:12.906Z,30.00
2023-01-10T23:44:21.427Z,26.10
2023-01-10T23:49:30.775Z,27.60
2023-01-10T23:54:39.475Z,31.50
2023-01-10T23:59:47.800Z,29.20
